Atlantic, Maine
Current Conditions -  °F | °C
As of 9:55 AM on Tuesday 21 Oct 2014 (Local Time) from KBHB Reporting Station
Clear Clear  
Wind Chill: 45°   Ceiling: Unl
Heat Index: 48°   Visibility: 10mi
Dew Point: 39°   Wind: 8mph
Humidity: 71%   Direction: 90°E
Pressure: 30.1"   Gusts: NA
Location:  44.1716°N, 68.4245°W
Report Text: KBHB 211355Z AUTO 09007KT 10SM CLR 09/04 A3010 RMK AO1
Loading
Personal Weather Stations






























Interactive Weather Map New forecast layout! Learn more

10-Day Weather Forecast

Advertisements
Track Severe Weather on mobile